sensor_id;sensor_type;location;lat;lon;timestamp;P1;durP1;ratioP1;P2;durP2;ratioP2
49139;SDS011;34959;49.310;8.646;2022-08-02T00:02:10;3.45;;;2.42;;
49139;SDS011;34959;49.310;8.646;2022-08-02T00:04:36;4.97;;;2.72;;
49139;SDS011;34959;49.310;8.646;2022-08-02T00:07:01;5.68;;;2.85;;
49139;SDS011;34959;49.310;8.646;2022-08-02T00:09:28;3.65;;;2.40;;
49139;SDS011;34959;49.310;8.646;2022-08-02T00:11:53;2.85;;;2.30;;
49139;SDS011;34959;49.310;8.646;2022-08-02T00:14:19;5.00;;;2.38;;
49139;SDS011;34959;49.310;8.646;2022-08-02T00:16:44;3.67;;;2.45;;
49139;SDS011;34959;49.310;8.646;2022-08-02T00:19:10;4.13;;;2.47;;
49139;SDS011;34959;49.310;8.646;2022-08-02T00:21:35;3.90;;;2.30;;
49139;SDS011;34959;49.310;8.646;2022-08-02T00:24:00;3.65;;;2.53;;
49139;SDS011;34959;49.310;8.646;2022-08-02T00:26:26;6.53;;;2.45;;
49139;SDS011;34959;49.310;8.646;2022-08-02T00:28:51;4.07;;;2.40;;
49139;SDS011;34959;49.310;8.646;2022-08-02T00:31:17;3.88;;;2.42;;
49139;SDS011;34959;49.310;8.646;2022-08-02T00:33:42;2.83;;;2.50;;
49139;SDS011;34959;49.310;8.646;2022-08-02T00:36:08;3.97;;;2.30;;
49139;SDS011;34959;49.310;8.646;2022-08-02T00:38:33;3.58;;;2.58;;
49139;SDS011;34959;49.310;8.646;2022-08-02T00:40:59;4.25;;;2.33;;
49139;SDS011;34959;49.310;8.646;2022-08-02T00:43:24;4.57;;;2.28;;
49139;SDS011;34959;49.310;8.646;2022-08-02T00:45:50;3.15;;;2.42;;
49139;SDS011;34959;49.310;8.646;2022-08-02T00:48:15;2.63;;;2.03;;
49139;SDS011;34959;49.310;8.646;2022-08-02T00:50:40;5.07;;;2.30;;
49139;SDS011;34959;49.310;8.646;2022-08-02T00:53:06;2.78;;;2.33;;
49139;SDS011;34959;49.310;8.646;2022-08-02T00:55:36;8.18;;;2.78;;
49139;SDS011;34959;49.310;8.646;2022-08-02T00:58:01;3.08;;;2.50;;
49139;SDS011;34959;49.310;8.646;2022-08-02T01:00:27;3.85;;;2.20;;
49139;SDS011;34959;49.310;8.646;2022-08-02T01:02:53;3.22;;;2.65;;
49139;SDS011;34959;49.310;8.646;2022-08-02T01:05:18;4.25;;;2.42;;
49139;SDS011;34959;49.310;8.646;2022-08-02T01:07:44;2.88;;;2.50;;
49139;SDS011;34959;49.310;8.646;2022-08-02T01:10:09;3.42;;;2.35;;
49139;SDS011;34959;49.310;8.646;2022-08-02T01:12:35;3.13;;;2.33;;
49139;SDS011;34959;49.310;8.646;2022-08-02T01:15:04;3.55;;;2.55;;
49139;SDS011;34959;49.310;8.646;2022-08-02T01:17:37;5.63;;;2.88;;
49139;SDS011;34959;49.310;8.646;2022-08-02T01:28:48;3.25;;;2.58;;
49139;SDS011;34959;49.310;8.646;2022-08-02T01:34:39;3.78;;;2.67;;
49139;SDS011;34959;49.310;8.646;2022-08-02T01:36:43;2.83;;;2.20;;
49139;SDS011;34959;49.310;8.646;2022-08-02T01:39:12;3.42;;;2.50;;
49139;SDS011;34959;49.310;8.646;2022-08-02T01:41:40;4.50;;;2.60;;
49139;SDS011;34959;49.310;8.646;2022-08-02T01:44:06;5.90;;;2.40;;
49139;SDS011;34959;49.310;8.646;2022-08-02T01:46:33;3.10;;;2.58;;
49139;SDS011;34959;49.310;8.646;2022-08-02T01:49:00;2.80;;;2.40;;
49139;SDS011;34959;49.310;8.646;2022-08-02T01:51:28;3.33;;;2.67;;
49139;SDS011;34959;49.310;8.646;2022-08-02T01:54:14;3.80;;;2.72;;
49139;SDS011;34959;49.310;8.646;2022-08-02T01:56:42;3.40;;;2.30;;
49139;SDS011;34959;49.310;8.646;2022-08-02T01:59:10;3.33;;;2.72;;
49139;SDS011;34959;49.310;8.646;2022-08-02T02:01:38;3.53;;;2.60;;
49139;SDS011;34959;49.310;8.646;2022-08-02T02:04:05;4.88;;;2.78;;
49139;SDS011;34959;49.310;8.646;2022-08-02T02:06:32;2.78;;;2.35;;
49139;SDS011;34959;49.310;8.646;2022-08-02T02:08:58;3.40;;;2.47;;
49139;SDS011;34959;49.310;8.646;2022-08-02T02:11:24;3.17;;;2.78;;
49139;SDS011;34959;49.310;8.646;2022-08-02T02:13:49;3.88;;;2.20;;
49139;SDS011;34959;49.310;8.646;2022-08-02T02:16:15;2.85;;;2.30;;
49139;SDS011;34959;49.310;8.646;2022-08-02T02:18:41;4.35;;;2.60;;
49139;SDS011;34959;49.310;8.646;2022-08-02T02:21:08;3.38;;;2.38;;
49139;SDS011;34959;49.310;8.646;2022-08-02T02:23:34;2.97;;;2.47;;
49139;SDS011;34959;49.310;8.646;2022-08-02T02:25:59;2.83;;;2.42;;
49139;SDS011;34959;49.310;8.646;2022-08-02T02:28:28;3.60;;;2.53;;
49139;SDS011;34959;49.310;8.646;2022-08-02T02:30:59;3.15;;;2.35;;
49139;SDS011;34959;49.310;8.646;2022-08-02T02:33:28;3.97;;;2.28;;
49139;SDS011;34959;49.310;8.646;2022-08-02T02:35:55;5.63;;;2.70;;
49139;SDS011;34959;49.310;8.646;2022-08-02T02:38:21;4.00;;;2.88;;
49139;SDS011;34959;49.310;8.646;2022-08-02T02:40:47;5.72;;;2.80;;
49139;SDS011;34959;49.310;8.646;2022-08-02T02:43:13;3.88;;;2.40;;
49139;SDS011;34959;49.310;8.646;2022-08-02T02:45:39;3.50;;;2.92;;
49139;SDS011;34959;49.310;8.646;2022-08-02T02:48:04;4.07;;;2.50;;
49139;SDS011;34959;49.310;8.646;2022-08-02T02:50:32;3.80;;;2.60;;
49139;SDS011;34959;49.310;8.646;2022-08-02T02:52:58;2.85;;;2.50;;
49139;SDS011;34959;49.310;8.646;2022-08-02T02:55:24;4.15;;;2.85;;
49139;SDS011;34959;49.310;8.646;2022-08-02T02:57:51;2.67;;;2.40;;
49139;SDS011;34959;49.310;8.646;2022-08-02T03:00:17;4.10;;;2.70;;
49139;SDS011;34959;49.310;8.646;2022-08-02T03:03:03;3.05;;;2.65;;
49139;SDS011;34959;49.310;8.646;2022-08-02T03:05:28;3.00;;;2.70;;
49139;SDS011;34959;49.310;8.646;2022-08-02T03:07:54;5.22;;;2.70;;
49139;SDS011;34959;49.310;8.646;2022-08-02T03:10:19;2.80;;;2.50;;
49139;SDS011;34959;49.310;8.646;2022-08-02T03:12:45;3.08;;;2.63;;
49139;SDS011;34959;49.310;8.646;2022-08-02T03:15:11;2.65;;;2.20;;
49139;SDS011;34959;49.310;8.646;2022-08-02T03:17:38;3.83;;;2.47;;
49139;SDS011;34959;49.310;8.646;2022-08-02T03:20:08;2.90;;;2.45;;
49139;SDS011;34959;49.310;8.646;2022-08-02T03:22:35;3.80;;;2.70;;
49139;SDS011;34959;49.310;8.646;2022-08-02T03:25:00;3.10;;;2.50;;
49139;SDS011;34959;49.310;8.646;2022-08-02T03:27:26;2.80;;;2.60;;
49139;SDS011;34959;49.310;8.646;2022-08-02T03:29:51;3.70;;;2.53;;
49139;SDS011;34959;49.310;8.646;2022-08-02T03:32:17;3.17;;;2.50;;
49139;SDS011;34959;49.310;8.646;2022-08-02T03:34:42;5.20;;;2.83;;
49139;SDS011;34959;49.310;8.646;2022-08-02T03:37:08;3.83;;;2.63;;
49139;SDS011;34959;49.310;8.646;2022-08-02T03:39:33;2.85;;;2.33;;
49139;SDS011;34959;49.310;8.646;2022-08-02T03:41:59;2.83;;;2.50;;
49139;SDS011;34959;49.310;8.646;2022-08-02T03:44:25;2.60;;;2.10;;
49139;SDS011;34959;49.310;8.646;2022-08-02T03:46:50;4.13;;;2.58;;
49139;SDS011;34959;49.310;8.646;2022-08-02T03:49:16;2.97;;;2.30;;
49139;SDS011;34959;49.310;8.646;2022-08-02T03:51:42;3.22;;;2.55;;
49139;SDS011;34959;49.310;8.646;2022-08-02T03:54:09;3.08;;;2.78;;
49139;SDS011;34959;49.310;8.646;2022-08-02T03:56:35;3.78;;;2.65;;
49139;SDS011;34959;49.310;8.646;2022-08-02T03:59:10;4.43;;;2.53;;
49139;SDS011;34959;49.310;8.646;2022-08-02T04:01:37;2.65;;;2.22;;
49139;SDS011;34959;49.310;8.646;2022-08-02T04:04:03;2.70;;;2.50;;
49139;SDS011;34959;49.310;8.646;2022-08-02T04:06:29;3.83;;;2.67;;
49139;SDS011;34959;49.310;8.646;2022-08-02T04:08:54;5.25;;;2.63;;
49139;SDS011;34959;49.310;8.646;2022-08-02T04:11:20;3.60;;;2.50;;
49139;SDS011;34959;49.310;8.646;2022-08-02T04:14:00;3.17;;;2.40;;
49139;SDS011;34959;49.310;8.646;2022-08-02T04:16:51;4.20;;;2.80;;
49139;SDS011;34959;49.310;8.646;2022-08-02T04:20:00;3.42;;;2.67;;
49139;SDS011;34959;49.310;8.646;2022-08-02T04:22:13;2.95;;;2.53;;
49139;SDS011;34959;49.310;8.646;2022-08-02T04:24:43;4.20;;;2.72;;
49139;SDS011;34959;49.310;8.646;2022-08-02T04:27:12;2.63;;;2.20;;
49139;SDS011;34959;49.310;8.646;2022-08-02T04:29:38;3.25;;;2.67;;
49139;SDS011;34959;49.310;8.646;2022-08-02T04:32:05;2.95;;;2.20;;
49139;SDS011;34959;49.310;8.646;2022-08-02T04:34:31;3.22;;;2.53;;
49139;SDS011;34959;49.310;8.646;2022-08-02T04:36:56;2.70;;;2.50;;
49139;SDS011;34959;49.310;8.646;2022-08-02T04:39:22;2.75;;;2.25;;
49139;SDS011;34959;49.310;8.646;2022-08-02T04:41:48;3.80;;;2.60;;
49139;SDS011;34959;49.310;8.646;2022-08-02T04:44:13;3.05;;;2.50;;
49139;SDS011;34959;49.310;8.646;2022-08-02T04:46:39;3.25;;;2.45;;
49139;SDS011;34959;49.310;8.646;2022-08-02T04:49:06;2.55;;;2.33;;
49139;SDS011;34959;49.310;8.646;2022-08-02T04:51:35;2.75;;;2.30;;
49139;SDS011;34959;49.310;8.646;2022-08-02T04:54:04;3.60;;;2.60;;
49139;SDS011;34959;49.310;8.646;2022-08-02T04:56:30;2.85;;;2.55;;
49139;SDS011;34959;49.310;8.646;2022-08-02T04:58:55;3.63;;;2.42;;
49139;SDS011;34959;49.310;8.646;2022-08-02T05:01:21;4.47;;;2.80;;
49139;SDS011;34959;49.310;8.646;2022-08-02T05:03:46;3.03;;;2.50;;
49139;SDS011;34959;49.310;8.646;2022-08-02T05:06:12;2.42;;;2.20;;
49139;SDS011;34959;49.310;8.646;2022-08-02T05:08:37;4.05;;;2.67;;
49139;SDS011;34959;49.310;8.646;2022-08-02T05:11:03;2.75;;;2.17;;
49139;SDS011;34959;49.310;8.646;2022-08-02T05:13:28;3.10;;;2.50;;
49139;SDS011;34959;49.310;8.646;2022-08-02T05:15:54;4.32;;;2.88;;
49139;SDS011;34959;49.310;8.646;2022-08-02T05:18:19;3.35;;;2.55;;
49139;SDS011;34959;49.310;8.646;2022-08-02T05:20:45;2.33;;;2.00;;
49139;SDS011;34959;49.310;8.646;2022-08-02T05:23:10;4.13;;;2.70;;
49139;SDS011;34959;49.310;8.646;2022-08-02T05:25:36;4.75;;;2.35;;
49139;SDS011;34959;49.310;8.646;2022-08-02T05:28:01;4.82;;;2.70;;
49139;SDS011;34959;49.310;8.646;2022-08-02T05:30:26;3.08;;;2.50;;
49139;SDS011;34959;49.310;8.646;2022-08-02T05:32:52;6.28;;;2.90;;
49139;SDS011;34959;49.310;8.646;2022-08-02T05:35:18;3.72;;;2.30;;
49139;SDS011;34959;49.310;8.646;2022-08-02T05:37:46;3.60;;;2.70;;
49139;SDS011;34959;49.310;8.646;2022-08-02T05:40:12;3.05;;;2.63;;
49139;SDS011;34959;49.310;8.646;2022-08-02T05:42:37;3.35;;;2.63;;
49139;SDS011;34959;49.310;8.646;2022-08-02T05:45:03;2.90;;;2.60;;
49139;SDS011;34959;49.310;8.646;2022-08-02T05:47:29;4.95;;;2.80;;
49139;SDS011;34959;49.310;8.646;2022-08-02T05:49:54;4.50;;;2.80;;
49139;SDS011;34959;49.310;8.646;2022-08-02T05:52:20;3.28;;;2.33;;
49139;SDS011;34959;49.310;8.646;2022-08-02T05:55:06;4.85;;;3.08;;
49139;SDS011;34959;49.310;8.646;2022-08-02T06:00:07;3.97;;;3.30;;
49139;SDS011;34959;49.310;8.646;2022-08-02T06:06:05;5.07;;;3.42;;
49139;SDS011;34959;49.310;8.646;2022-08-02T06:08:41;5.43;;;3.43;;
49139;SDS011;34959;49.310;8.646;2022-08-02T06:11:09;6.07;;;3.83;;
49139;SDS011;34959;49.310;8.646;2022-08-02T06:13:37;5.47;;;2.95;;
49139;SDS011;34959;49.310;8.646;2022-08-02T06:16:04;4.55;;;2.70;;
49139;SDS011;34959;49.310;8.646;2022-08-02T06:18:30;4.75;;;2.88;;
49139;SDS011;34959;49.310;8.646;2022-08-02T06:20:56;4.10;;;2.83;;
49139;SDS011;34959;49.310;8.646;2022-08-02T06:23:23;5.20;;;3.20;;
49139;SDS011;34959;49.310;8.646;2022-08-02T06:25:50;5.28;;;3.08;;
49139;SDS011;34959;49.310;8.646;2022-08-02T06:28:17;4.32;;;3.50;;
49139;SDS011;34959;49.310;8.646;2022-08-02T06:30:43;7.80;;;3.78;;
49139;SDS011;34959;49.310;8.646;2022-08-02T06:33:09;5.72;;;4.25;;
49139;SDS011;34959;49.310;8.646;2022-08-02T06:38:22;4.35;;;3.55;;
49139;SDS011;34959;49.310;8.646;2022-08-02T06:40:59;6.53;;;3.80;;
49139;SDS011;34959;49.310;8.646;2022-08-02T06:46:02;5.00;;;4.13;;
49139;SDS011;34959;49.310;8.646;2022-08-02T06:48:28;6.05;;;3.50;;
49139;SDS011;34959;49.310;8.646;2022-08-02T06:50:54;4.95;;;3.20;;
49139;SDS011;34959;49.310;8.646;2022-08-02T06:53:20;5.00;;;2.83;;
49139;SDS011;34959;49.310;8.646;2022-08-02T06:55:45;4.88;;;3.20;;
49139;SDS011;34959;49.310;8.646;2022-08-02T06:58:12;4.43;;;2.65;;
49139;SDS011;34959;49.310;8.646;2022-08-02T07:00:38;5.05;;;3.10;;
49139;SDS011;34959;49.310;8.646;2022-08-02T07:03:03;3.75;;;2.70;;
49139;SDS011;34959;49.310;8.646;2022-08-02T07:05:29;3.67;;;2.67;;
49139;SDS011;34959;49.310;8.646;2022-08-02T07:07:55;3.97;;;2.63;;
49139;SDS011;34959;49.310;8.646;2022-08-02T07:10:20;4.57;;;3.10;;
49139;SDS011;34959;49.310;8.646;2022-08-02T07:12:45;3.30;;;2.35;;
49139;SDS011;34959;49.310;8.646;2022-08-02T07:15:11;4.40;;;2.88;;
49139;SDS011;34959;49.310;8.646;2022-08-02T07:17:37;4.60;;;2.63;;
49139;SDS011;34959;49.310;8.646;2022-08-02T07:20:02;4.15;;;2.28;;
49139;SDS011;34959;49.310;8.646;2022-08-02T07:22:28;3.17;;;2.40;;
49139;SDS011;34959;49.310;8.646;2022-08-02T07:24:54;3.70;;;2.70;;
49139;SDS011;34959;49.310;8.646;2022-08-02T07:27:21;3.80;;;2.90;;
49139;SDS011;34959;49.310;8.646;2022-08-02T07:29:47;4.07;;;2.60;;
49139;SDS011;34959;49.310;8.646;2022-08-02T07:32:22;4.38;;;2.65;;
49139;SDS011;34959;49.310;8.646;2022-08-02T07:34:50;4.43;;;2.60;;
49139;SDS011;34959;49.310;8.646;2022-08-02T07:37:16;4.00;;;2.50;;
49139;SDS011;34959;49.310;8.646;2022-08-02T07:39:41;2.90;;;2.40;;
49139;SDS011;34959;49.310;8.646;2022-08-02T07:42:06;4.28;;;2.40;;
49139;SDS011;34959;49.310;8.646;2022-08-02T07:44:32;2.47;;;2.10;;
49139;SDS011;34959;49.310;8.646;2022-08-02T07:47:00;3.85;;;2.60;;
49139;SDS011;34959;49.310;8.646;2022-08-02T07:49:26;2.63;;;2.30;;
49139;SDS011;34959;49.310;8.646;2022-08-02T07:51:52;3.65;;;2.58;;
49139;SDS011;34959;49.310;8.646;2022-08-02T07:54:17;2.40;;;2.20;;
49139;SDS011;34959;49.310;8.646;2022-08-02T07:56:43;2.28;;;1.98;;
49139;SDS011;34959;49.310;8.646;2022-08-02T07:59:08;2.45;;;2.20;;
49139;SDS011;34959;49.310;8.646;2022-08-02T08:01:34;2.85;;;2.40;;
49139;SDS011;34959;49.310;8.646;2022-08-02T08:04:01;4.07;;;2.47;;
49139;SDS011;34959;49.310;8.646;2022-08-02T08:06:26;2.70;;;2.20;;
49139;SDS011;34959;49.310;8.646;2022-08-02T08:08:51;3.92;;;2.60;;
49139;SDS011;34959;49.310;8.646;2022-08-02T08:11:17;2.75;;;2.10;;
49139;SDS011;34959;49.310;8.646;2022-08-02T08:13:42;3.60;;;2.33;;
49139;SDS011;34959;49.310;8.646;2022-08-02T08:16:08;3.40;;;2.13;;
49139;SDS011;34959;49.310;8.646;2022-08-02T08:18:34;2.88;;;2.30;;
49139;SDS011;34959;49.310;8.646;2022-08-02T08:20:59;4.80;;;2.75;;
49139;SDS011;34959;49.310;8.646;2022-08-02T08:23:24;2.50;;;2.20;;
49139;SDS011;34959;49.310;8.646;2022-08-02T08:25:50;2.90;;;2.20;;
49139;SDS011;34959;49.310;8.646;2022-08-02T08:28:15;2.00;;;1.80;;
49139;SDS011;34959;49.310;8.646;2022-08-02T08:30:41;4.13;;;2.42;;
49139;SDS011;34959;49.310;8.646;2022-08-02T08:33:07;2.05;;;1.80;;
49139;SDS011;34959;49.310;8.646;2022-08-02T08:35:32;3.78;;;2.35;;
49139;SDS011;34959;49.310;8.646;2022-08-02T08:37:58;2.75;;;2.10;;
49139;SDS011;34959;49.310;8.646;2022-08-02T08:40:24;2.75;;;2.10;;
49139;SDS011;34959;49.310;8.646;2022-08-02T08:42:50;4.03;;;2.20;;
49139;SDS011;34959;49.310;8.646;2022-08-02T08:45:15;2.88;;;2.30;;
49139;SDS011;34959;49.310;8.646;2022-08-02T08:47:42;3.20;;;2.28;;
49139;SDS011;34959;49.310;8.646;2022-08-02T08:50:13;2.47;;;2.20;;
49139;SDS011;34959;49.310;8.646;2022-08-02T08:52:56;2.92;;;2.17;;
49139;SDS011;34959;49.310;8.646;2022-08-02T08:55:31;2.30;;;2.00;;
49139;SDS011;34959;49.310;8.646;2022-08-02T08:57:58;3.85;;;2.00;;
49139;SDS011;34959;49.310;8.646;2022-08-02T09:00:25;3.00;;;2.20;;
49139;SDS011;34959;49.310;8.646;2022-08-02T09:02:51;2.05;;;1.90;;
49139;SDS011;34959;49.310;8.646;2022-08-02T09:05:16;2.53;;;1.90;;
49139;SDS011;34959;49.310;8.646;2022-08-02T09:07:42;2.30;;;2.10;;
49139;SDS011;34959;49.310;8.646;2022-08-02T09:13:09;3.22;;;2.17;;
49139;SDS011;34959;49.310;8.646;2022-08-02T09:15:55;2.17;;;1.98;;
49139;SDS011;34959;49.310;8.646;2022-08-02T09:18:37;2.42;;;1.83;;
49139;SDS011;34959;49.310;8.646;2022-08-02T09:21:05;2.40;;;2.05;;
49139;SDS011;34959;49.310;8.646;2022-08-02T09:23:33;2.30;;;1.90;;
49139;SDS011;34959;49.310;8.646;2022-08-02T09:26:06;2.78;;;1.98;;
49139;SDS011;34959;49.310;8.646;2022-08-02T09:28:36;2.70;;;1.97;;
49139;SDS011;34959;49.310;8.646;2022-08-02T09:33:34;2.53;;;1.60;;
49139;SDS011;34959;49.310;8.646;2022-08-02T09:36:02;2.63;;;1.90;;
49139;SDS011;34959;49.310;8.646;2022-08-02T09:38:28;1.50;;;1.40;;
49139;SDS011;34959;49.310;8.646;2022-08-02T09:40:54;1.92;;;1.67;;
49139;SDS011;34959;49.310;8.646;2022-08-02T09:43:20;3.15;;;1.50;;
49139;SDS011;34959;49.310;8.646;2022-08-02T09:45:46;1.90;;;1.70;;
49139;SDS011;34959;49.310;8.646;2022-08-02T09:48:11;1.85;;;1.70;;
49139;SDS011;34959;49.310;8.646;2022-08-02T09:50:38;1.83;;;1.70;;
49139;SDS011;34959;49.310;8.646;2022-08-02T09:53:05;1.70;;;1.60;;
49139;SDS011;34959;49.310;8.646;2022-08-02T09:55:36;1.48;;;1.30;;
49139;SDS011;34959;49.310;8.646;2022-08-02T09:58:20;1.70;;;1.60;;
49139;SDS011;34959;49.310;8.646;2022-08-02T10:00:56;2.00;;;1.63;;
49139;SDS011;34959;49.310;8.646;2022-08-02T10:03:23;2.10;;;1.60;;
49139;SDS011;34959;49.310;8.646;2022-08-02T10:05:52;1.98;;;1.77;;
49139;SDS011;34959;49.310;8.646;2022-08-02T10:08:19;1.90;;;1.80;;
49139;SDS011;34959;49.310;8.646;2022-08-02T10:10:45;1.98;;;1.58;;
49139;SDS011;34959;49.310;8.646;2022-08-02T10:13:10;2.03;;;1.73;;
49139;SDS011;34959;49.310;8.646;2022-08-02T10:15:37;2.40;;;1.80;;
49139;SDS011;34959;49.310;8.646;2022-08-02T10:18:06;1.95;;;1.70;;
49139;SDS011;34959;49.310;8.646;2022-08-02T10:20:32;1.85;;;1.50;;
49139;SDS011;34959;49.310;8.646;2022-08-02T10:23:01;2.20;;;1.90;;
49139;SDS011;34959;49.310;8.646;2022-08-02T10:25:27;2.05;;;1.70;;
49139;SDS011;34959;49.310;8.646;2022-08-02T10:27:53;2.67;;;1.80;;
49139;SDS011;34959;49.310;8.646;2022-08-02T10:30:20;5.45;;;1.88;;
49139;SDS011;34959;49.310;8.646;2022-08-02T10:32:50;3.35;;;1.90;;
49139;SDS011;34959;49.310;8.646;2022-08-02T10:35:20;3.25;;;1.85;;
49139;SDS011;34959;49.310;8.646;2022-08-02T10:37:46;2.17;;;1.65;;
49139;SDS011;34959;49.310;8.646;2022-08-02T10:40:15;1.67;;;1.40;;
49139;SDS011;34959;49.310;8.646;2022-08-02T10:42:56;2.10;;;1.65;;
49139;SDS011;34959;49.310;8.646;2022-08-02T10:45:23;3.30;;;1.70;;
49139;SDS011;34959;49.310;8.646;2022-08-02T10:47:56;1.67;;;1.40;;
49139;SDS011;34959;49.310;8.646;2022-08-02T10:53:18;3.58;;;1.80;;
49139;SDS011;34959;49.310;8.646;2022-08-02T10:55:54;2.40;;;1.75;;
49139;SDS011;34959;49.310;8.646;2022-08-02T10:58:21;1.92;;;1.60;;
49139;SDS011;34959;49.310;8.646;2022-08-02T11:00:48;2.60;;;1.60;;
49139;SDS011;34959;49.310;8.646;2022-08-02T11:06:02;2.92;;;2.10;;
49139;SDS011;34959;49.310;8.646;2022-08-02T11:08:29;6.80;;;1.77;;
49139;SDS011;34959;49.310;8.646;2022-08-02T11:10:58;2.10;;;1.45;;
49139;SDS011;34959;49.310;8.646;2022-08-02T11:13:25;2.08;;;1.70;;
49139;SDS011;34959;49.310;8.646;2022-08-02T11:15:56;2.00;;;1.52;;
49139;SDS011;34959;49.310;8.646;2022-08-02T11:21:19;2.17;;;1.42;;
49139;SDS011;34959;49.310;8.646;2022-08-02T11:23:46;2.47;;;1.65;;
49139;SDS011;34959;49.310;8.646;2022-08-02T11:28:59;1.92;;;1.50;;
49139;SDS011;34959;49.310;8.646;2022-08-02T11:31:26;2.40;;;1.67;;
49139;SDS011;34959;49.310;8.646;2022-08-02T11:33:52;3.53;;;1.50;;
49139;SDS011;34959;49.310;8.646;2022-08-02T11:36:17;2.35;;;1.60;;
49139;SDS011;34959;49.310;8.646;2022-08-02T11:38:44;1.70;;;1.42;;
49139;SDS011;34959;49.310;8.646;2022-08-02T11:41:17;2.05;;;1.85;;
49139;SDS011;34959;49.310;8.646;2022-08-02T11:43:43;2.95;;;1.80;;
49139;SDS011;34959;49.310;8.646;2022-08-02T11:46:13;1.23;;;1.10;;
49139;SDS011;34959;49.310;8.646;2022-08-02T11:48:40;3.55;;;1.70;;
49139;SDS011;34959;49.310;8.646;2022-08-02T11:51:16;2.10;;;1.58;;
49139;SDS011;34959;49.310;8.646;2022-08-02T11:56:15;1.55;;;1.45;;
49139;SDS011;34959;49.310;8.646;2022-08-02T11:58:58;3.13;;;1.67;;
49139;SDS011;34959;49.310;8.646;2022-08-02T12:01:31;1.55;;;1.20;;
49139;SDS011;34959;49.310;8.646;2022-08-02T12:03:58;4.13;;;1.52;;
49139;SDS011;34959;49.310;8.646;2022-08-02T12:06:28;3.42;;;1.45;;
49139;SDS011;34959;49.310;8.646;2022-08-02T12:08:58;1.73;;;1.45;;
49139;SDS011;34959;49.310;8.646;2022-08-02T12:11:33;2.00;;;1.45;;
49139;SDS011;34959;49.310;8.646;2022-08-02T12:14:00;4.00;;;1.55;;
49139;SDS011;34959;49.310;8.646;2022-08-02T12:16:36;2.03;;;1.40;;
49139;SDS011;34959;49.310;8.646;2022-08-02T12:19:21;2.20;;;1.58;;
49139;SDS011;34959;49.310;8.646;2022-08-02T12:24:45;1.52;;;1.23;;
49139;SDS011;34959;49.310;8.646;2022-08-02T12:27:32;2.70;;;1.50;;
49139;SDS011;34959;49.310;8.646;2022-08-02T12:32:34;1.95;;;1.30;;
49139;SDS011;34959;49.310;8.646;2022-08-02T12:37:31;1.98;;;1.55;;
49139;SDS011;34959;49.310;8.646;2022-08-02T12:39:57;2.53;;;1.55;;
49139;SDS011;34959;49.310;8.646;2022-08-02T12:42:24;2.03;;;1.38;;
49139;SDS011;34959;49.310;8.646;2022-08-02T12:44:54;1.65;;;1.40;;
49139;SDS011;34959;49.310;8.646;2022-08-02T12:47:22;1.85;;;1.40;;
49139;SDS011;34959;49.310;8.646;2022-08-02T12:52:42;1.60;;;1.33;;
49139;SDS011;34959;49.310;8.646;2022-08-02T12:55:23;3.35;;;1.38;;
49139;SDS011;34959;49.310;8.646;2022-08-02T12:57:59;1.63;;;1.30;;
49139;SDS011;34959;49.310;8.646;2022-08-02T13:00:27;2.72;;;1.45;;
49139;SDS011;34959;49.310;8.646;2022-08-02T13:02:55;1.98;;;1.48;;
49139;SDS011;34959;49.310;8.646;2022-08-02T13:05:21;3.92;;;1.63;;
49139;SDS011;34959;49.310;8.646;2022-08-02T13:07:47;3.08;;;1.63;;
49139;SDS011;34959;49.310;8.646;2022-08-02T13:10:12;1.63;;;1.30;;
49139;SDS011;34959;49.310;8.646;2022-08-02T13:12:38;1.83;;;1.40;;
49139;SDS011;34959;49.310;8.646;2022-08-02T13:15:04;2.70;;;1.50;;
49139;SDS011;34959;49.310;8.646;2022-08-02T13:17:33;1.90;;;1.23;;
49139;SDS011;34959;49.310;8.646;2022-08-02T13:19:58;2.63;;;1.30;;
49139;SDS011;34959;49.310;8.646;2022-08-02T13:22:24;4.90;;;1.58;;
49139;SDS011;34959;49.310;8.646;2022-08-02T13:24:49;2.53;;;1.50;;
49139;SDS011;34959;49.310;8.646;2022-08-02T13:27:16;3.67;;;1.40;;
49139;SDS011;34959;49.310;8.646;2022-08-02T13:29:42;2.15;;;1.30;;
49139;SDS011;34959;49.310;8.646;2022-08-02T13:32:07;2.50;;;1.38;;
49139;SDS011;34959;49.310;8.646;2022-08-02T13:34:33;2.42;;;1.50;;
49139;SDS011;34959;49.310;8.646;2022-08-02T13:36:58;1.85;;;1.33;;
49139;SDS011;34959;49.310;8.646;2022-08-02T13:39:24;1.63;;;1.40;;
49139;SDS011;34959;49.310;8.646;2022-08-02T13:41:49;2.50;;;1.40;;
49139;SDS011;34959;49.310;8.646;2022-08-02T13:44:15;1.80;;;1.20;;
49139;SDS011;34959;49.310;8.646;2022-08-02T13:46:40;1.25;;;1.15;;
49139;SDS011;34959;49.310;8.646;2022-08-02T13:49:06;1.70;;;1.10;;
49139;SDS011;34959;49.310;8.646;2022-08-02T13:51:31;2.20;;;1.30;;
49139;SDS011;34959;49.310;8.646;2022-08-02T13:53:57;2.75;;;1.10;;
49139;SDS011;34959;49.310;8.646;2022-08-02T13:56:22;1.35;;;1.10;;
49139;SDS011;34959;49.310;8.646;2022-08-02T13:58:48;1.42;;;1.10;;
49139;SDS011;34959;49.310;8.646;2022-08-02T14:01:13;1.42;;;1.20;;
49139;SDS011;34959;49.310;8.646;2022-08-02T14:03:39;2.85;;;1.40;;
49139;SDS011;34959;49.310;8.646;2022-08-02T14:06:04;1.58;;;1.17;;
49139;SDS011;34959;49.310;8.646;2022-08-02T14:08:31;1.48;;;1.20;;
49139;SDS011;34959;49.310;8.646;2022-08-02T14:10:56;2.00;;;1.20;;
49139;SDS011;34959;49.310;8.646;2022-08-02T14:13:22;2.72;;;1.50;;
49139;SDS011;34959;49.310;8.646;2022-08-02T14:15:48;1.98;;;1.13;;
49139;SDS011;34959;49.310;8.646;2022-08-02T14:18:13;2.53;;;1.40;;
49139;SDS011;34959;49.310;8.646;2022-08-02T14:20:39;1.27;;;1.00;;
49139;SDS011;34959;49.310;8.646;2022-08-02T14:23:05;1.52;;;1.30;;
49139;SDS011;34959;49.310;8.646;2022-08-02T14:25:31;1.27;;;1.10;;
49139;SDS011;34959;49.310;8.646;2022-08-02T14:27:56;1.35;;;0.80;;
49139;SDS011;34959;49.310;8.646;2022-08-02T14:30:22;1.10;;;1.00;;
49139;SDS011;34959;49.310;8.646;2022-08-02T14:32:48;1.60;;;1.17;;
49139;SDS011;34959;49.310;8.646;2022-08-02T14:35:14;1.15;;;1.00;;
49139;SDS011;34959;49.310;8.646;2022-08-02T14:37:40;1.30;;;1.20;;
49139;SDS011;34959;49.310;8.646;2022-08-02T14:40:05;1.20;;;1.00;;
49139;SDS011;34959;49.310;8.646;2022-08-02T14:42:31;1.70;;;1.10;;
49139;SDS011;34959;49.310;8.646;2022-08-02T14:44:57;1.20;;;0.90;;
49139;SDS011;34959;49.310;8.646;2022-08-02T14:47:22;1.73;;;1.20;;
49139;SDS011;34959;49.310;8.646;2022-08-02T14:49:48;1.83;;;1.30;;
49139;SDS011;34959;49.310;8.646;2022-08-02T14:52:13;1.50;;;1.27;;
49139;SDS011;34959;49.310;8.646;2022-08-02T14:54:39;1.60;;;1.30;;
49139;SDS011;34959;49.310;8.646;2022-08-02T14:57:07;2.05;;;1.23;;
49139;SDS011;34959;49.310;8.646;2022-08-02T14:59:32;3.88;;;1.70;;
49139;SDS011;34959;49.310;8.646;2022-08-02T15:01:58;1.20;;;1.10;;
49139;SDS011;34959;49.310;8.646;2022-08-02T15:04:24;1.40;;;1.17;;
49139;SDS011;34959;49.310;8.646;2022-08-02T15:06:50;1.25;;;1.15;;
49139;SDS011;34959;49.310;8.646;2022-08-02T15:09:15;1.25;;;1.15;;
49139;SDS011;34959;49.310;8.646;2022-08-02T15:11:41;1.40;;;1.20;;
49139;SDS011;34959;49.310;8.646;2022-08-02T15:14:06;2.38;;;1.38;;
49139;SDS011;34959;49.310;8.646;2022-08-02T15:16:32;1.92;;;1.30;;
49139;SDS011;34959;49.310;8.646;2022-08-02T15:19:02;1.85;;;1.20;;
49139;SDS011;34959;49.310;8.646;2022-08-02T15:21:28;1.67;;;1.33;;
49139;SDS011;34959;49.310;8.646;2022-08-02T15:23:54;2.15;;;0.90;;
49139;SDS011;34959;49.310;8.646;2022-08-02T15:26:19;1.35;;;1.23;;
49139;SDS011;34959;49.310;8.646;2022-08-02T15:28:45;1.50;;;1.20;;
49139;SDS011;34959;49.310;8.646;2022-08-02T15:31:11;1.20;;;1.05;;
49139;SDS011;34959;49.310;8.646;2022-08-02T15:33:38;1.05;;;0.98;;
49139;SDS011;34959;49.310;8.646;2022-08-02T15:36:04;1.83;;;1.33;;
49139;SDS011;34959;49.310;8.646;2022-08-02T15:38:31;1.90;;;1.23;;
49139;SDS011;34959;49.310;8.646;2022-08-02T15:40:57;1.33;;;1.10;;
49139;SDS011;34959;49.310;8.646;2022-08-02T15:43:22;1.98;;;1.13;;